sensor_id;sensor_type;location;lat;lon;timestamp;P1;durP1;ratioP1;P2;durP2;ratioP2
50309;SDS011;36207;51.850;21.698;2022-11-20T00:01:18;76.10;;;34.10;;
50309;SDS011;36207;51.850;21.698;2022-11-20T00:03:46;78.40;;;35.20;;
50309;SDS011;36207;51.850;21.698;2022-11-20T00:06:14;70.50;;;33.70;;
50309;SDS011;36207;51.850;21.698;2022-11-20T00:08:42;74.10;;;33.80;;
50309;SDS011;36207;51.850;21.698;2022-11-20T00:11:12;73.10;;;34.20;;
50309;SDS011;36207;51.850;21.698;2022-11-20T00:13:40;72.30;;;32.30;;
50309;SDS011;36207;51.850;21.698;2022-11-20T00:16:09;74.20;;;31.90;;
50309;SDS011;36207;51.850;21.698;2022-11-20T00:18:36;72.00;;;32.40;;
50309;SDS011;36207;51.850;21.698;2022-11-20T00:21:03;67.50;;;32.60;;
50309;SDS011;36207;51.850;21.698;2022-11-20T00:23:32;66.60;;;31.70;;
50309;SDS011;36207;51.850;21.698;2022-11-20T00:26:06;67.90;;;31.30;;
50309;SDS011;36207;51.850;21.698;2022-11-20T00:28:33;69.10;;;32.90;;
50309;SDS011;36207;51.850;21.698;2022-11-20T00:31:00;75.10;;;31.70;;
50309;SDS011;36207;51.850;21.698;2022-11-20T00:33:28;68.70;;;32.60;;
50309;SDS011;36207;51.850;21.698;2022-11-20T00:36:14;68.60;;;33.80;;
50309;SDS011;36207;51.850;21.698;2022-11-20T00:38:42;66.10;;;31.70;;
50309;SDS011;36207;51.850;21.698;2022-11-20T00:41:10;68.30;;;32.60;;
50309;SDS011;36207;51.850;21.698;2022-11-20T00:43:38;71.40;;;33.10;;
50309;SDS011;36207;51.850;21.698;2022-11-20T00:46:06;75.70;;;33.40;;
50309;SDS011;36207;51.850;21.698;2022-11-20T00:48:34;74.60;;;32.90;;
50309;SDS011;36207;51.850;21.698;2022-11-20T00:51:01;73.20;;;33.20;;
50309;SDS011;36207;51.850;21.698;2022-11-20T00:53:28;69.70;;;32.90;;
50309;SDS011;36207;51.850;21.698;2022-11-20T00:55:55;70.80;;;33.30;;
50309;SDS011;36207;51.850;21.698;2022-11-20T00:58:33;71.10;;;32.80;;
50309;SDS011;36207;51.850;21.698;2022-11-20T01:01:01;73.60;;;33.10;;
50309;SDS011;36207;51.850;21.698;2022-11-20T01:03:32;72.30;;;32.20;;
50309;SDS011;36207;51.850;21.698;2022-11-20T01:06:01;66.60;;;31.60;;
50309;SDS011;36207;51.850;21.698;2022-11-20T01:08:30;70.20;;;31.60;;
50309;SDS011;36207;51.850;21.698;2022-11-20T01:11:01;69.40;;;32.10;;
50309;SDS011;36207;51.850;21.698;2022-11-20T01:13:29;70.80;;;32.80;;
50309;SDS011;36207;51.850;21.698;2022-11-20T01:18:30;71.00;;;32.40;;
50309;SDS011;36207;51.850;21.698;2022-11-20T01:20:59;70.00;;;31.90;;
50309;SDS011;36207;51.850;21.698;2022-11-20T01:23:31;70.40;;;31.50;;
50309;SDS011;36207;51.850;21.698;2022-11-20T01:25:59;71.70;;;33.00;;
50309;SDS011;36207;51.850;21.698;2022-11-20T01:28:30;74.70;;;33.70;;
50309;SDS011;36207;51.850;21.698;2022-11-20T01:30:57;69.90;;;32.80;;
50309;SDS011;36207;51.850;21.698;2022-11-20T01:33:23;69.60;;;32.20;;
50309;SDS011;36207;51.850;21.698;2022-11-20T01:35:50;67.20;;;31.60;;
50309;SDS011;36207;51.850;21.698;2022-11-20T01:38:17;64.50;;;31.10;;
50309;SDS011;36207;51.850;21.698;2022-11-20T01:40:53;70.30;;;31.70;;
50309;SDS011;36207;51.850;21.698;2022-11-20T01:43:20;70.40;;;31.80;;
50309;SDS011;36207;51.850;21.698;2022-11-20T01:48:22;75.90;;;33.90;;
50309;SDS011;36207;51.850;21.698;2022-11-20T01:50:51;68.60;;;33.00;;
50309;SDS011;36207;51.850;21.698;2022-11-20T01:53:21;66.80;;;32.60;;
50309;SDS011;36207;51.850;21.698;2022-11-20T01:55:53;73.10;;;32.30;;
50309;SDS011;36207;51.850;21.698;2022-11-20T01:58:25;74.50;;;33.00;;
50309;SDS011;36207;51.850;21.698;2022-11-20T02:00:57;73.00;;;34.00;;
50309;SDS011;36207;51.850;21.698;2022-11-20T02:03:24;76.50;;;33.90;;
50309;SDS011;36207;51.850;21.698;2022-11-20T02:05:53;78.50;;;34.70;;
50309;SDS011;36207;51.850;21.698;2022-11-20T02:08:21;72.90;;;33.60;;
50309;SDS011;36207;51.850;21.698;2022-11-20T02:10:49;70.60;;;33.90;;
50309;SDS011;36207;51.850;21.698;2022-11-20T02:13:15;75.00;;;34.70;;
50309;SDS011;36207;51.850;21.698;2022-11-20T02:16:01;82.50;;;36.70;;
50309;SDS011;36207;51.850;21.698;2022-11-20T02:18:28;81.90;;;36.70;;
50309;SDS011;36207;51.850;21.698;2022-11-20T02:26:57;79.70;;;36.00;;
50309;SDS011;36207;51.850;21.698;2022-11-20T02:29:45;85.70;;;37.30;;
50309;SDS011;36207;51.850;21.698;2022-11-20T02:32:22;79.40;;;34.90;;
50309;SDS011;36207;51.850;21.698;2022-11-20T02:34:54;75.50;;;33.90;;
50309;SDS011;36207;51.850;21.698;2022-11-20T02:37:21;70.10;;;33.50;;
50309;SDS011;36207;51.850;21.698;2022-11-20T02:39:49;73.50;;;33.40;;
50309;SDS011;36207;51.850;21.698;2022-11-20T02:42:17;73.90;;;33.80;;
50309;SDS011;36207;51.850;21.698;2022-11-20T02:44:43;69.70;;;32.80;;
50309;SDS011;36207;51.850;21.698;2022-11-20T02:47:10;75.60;;;32.30;;
50309;SDS011;36207;51.850;21.698;2022-11-20T02:49:36;76.10;;;32.90;;
50309;SDS011;36207;51.850;21.698;2022-11-20T02:52:02;75.90;;;33.70;;
50309;SDS011;36207;51.850;21.698;2022-11-20T02:54:29;74.80;;;32.20;;
50309;SDS011;36207;51.850;21.698;2022-11-20T02:56:55;69.30;;;31.50;;
50309;SDS011;36207;51.850;21.698;2022-11-20T02:59:21;73.00;;;31.40;;
50309;SDS011;36207;51.850;21.698;2022-11-20T03:01:47;68.10;;;31.20;;
50309;SDS011;36207;51.850;21.698;2022-11-20T03:04:14;66.50;;;32.30;;
50309;SDS011;36207;51.850;21.698;2022-11-20T03:06:40;69.50;;;30.60;;
50309;SDS011;36207;51.850;21.698;2022-11-20T03:09:06;73.00;;;31.10;;
50309;SDS011;36207;51.850;21.698;2022-11-20T03:11:32;69.30;;;30.20;;
50309;SDS011;36207;51.850;21.698;2022-11-20T03:14:01;70.00;;;29.60;;
50309;SDS011;36207;51.850;21.698;2022-11-20T03:16:30;64.20;;;29.00;;
50309;SDS011;36207;51.850;21.698;2022-11-20T03:18:57;70.50;;;31.70;;
50309;SDS011;36207;51.850;21.698;2022-11-20T03:21:24;67.50;;;30.60;;
50309;SDS011;36207;51.850;21.698;2022-11-20T03:23:50;65.70;;;30.30;;
50309;SDS011;36207;51.850;21.698;2022-11-20T03:26:19;63.70;;;30.90;;
50309;SDS011;36207;51.850;21.698;2022-11-20T03:28:58;69.60;;;31.10;;
50309;SDS011;36207;51.850;21.698;2022-11-20T03:31:30;63.70;;;29.80;;
50309;SDS011;36207;51.850;21.698;2022-11-20T03:33:59;62.80;;;29.00;;
50309;SDS011;36207;51.850;21.698;2022-11-20T03:36:26;60.40;;;28.00;;
50309;SDS011;36207;51.850;21.698;2022-11-20T03:38:53;57.00;;;27.30;;
50309;SDS011;36207;51.850;21.698;2022-11-20T03:41:27;55.70;;;27.80;;
50309;SDS011;36207;51.850;21.698;2022-11-20T03:43:56;65.30;;;28.30;;
50309;SDS011;36207;51.850;21.698;2022-11-20T03:46:25;62.00;;;27.60;;
50309;SDS011;36207;51.850;21.698;2022-11-20T03:48:52;55.90;;;27.00;;
50309;SDS011;36207;51.850;21.698;2022-11-20T03:51:20;62.40;;;29.40;;
50309;SDS011;36207;51.850;21.698;2022-11-20T03:53:58;59.80;;;27.60;;
50309;SDS011;36207;51.850;21.698;2022-11-20T03:56:26;59.20;;;27.40;;
50309;SDS011;36207;51.850;21.698;2022-11-20T03:58:57;60.00;;;27.70;;
50309;SDS011;36207;51.850;21.698;2022-11-20T04:01:25;70.70;;;30.80;;
50309;SDS011;36207;51.850;21.698;2022-11-20T04:03:54;61.10;;;29.10;;
50309;SDS011;36207;51.850;21.698;2022-11-20T04:06:25;60.10;;;29.50;;
50309;SDS011;36207;51.850;21.698;2022-11-20T04:08:56;58.60;;;28.20;;
50309;SDS011;36207;51.850;21.698;2022-11-20T04:11:25;62.50;;;29.20;;
50309;SDS011;36207;51.850;21.698;2022-11-20T04:13:57;58.10;;;28.20;;
50309;SDS011;36207;51.850;21.698;2022-11-20T04:16:25;60.70;;;28.40;;
50309;SDS011;36207;51.850;21.698;2022-11-20T04:18:54;60.80;;;28.40;;
50309;SDS011;36207;51.850;21.698;2022-11-20T04:21:22;61.10;;;28.50;;
50309;SDS011;36207;51.850;21.698;2022-11-20T04:23:50;60.30;;;28.70;;
50309;SDS011;36207;51.850;21.698;2022-11-20T04:26:18;63.40;;;28.60;;
50309;SDS011;36207;51.850;21.698;2022-11-20T04:28:45;59.90;;;29.10;;
50309;SDS011;36207;51.850;21.698;2022-11-20T04:31:12;66.50;;;29.90;;
50309;SDS011;36207;51.850;21.698;2022-11-20T04:33:40;63.70;;;30.00;;
50309;SDS011;36207;51.850;21.698;2022-11-20T04:36:09;62.40;;;28.90;;
50309;SDS011;36207;51.850;21.698;2022-11-20T04:38:38;62.90;;;27.90;;
50309;SDS011;36207;51.850;21.698;2022-11-20T04:41:05;70.00;;;28.80;;
50309;SDS011;36207;51.850;21.698;2022-11-20T04:43:33;58.30;;;27.30;;
50309;SDS011;36207;51.850;21.698;2022-11-20T04:46:00;62.00;;;28.50;;
50309;SDS011;36207;51.850;21.698;2022-11-20T04:48:27;56.50;;;26.50;;
50309;SDS011;36207;51.850;21.698;2022-11-20T04:50:55;62.10;;;27.60;;
50309;SDS011;36207;51.850;21.698;2022-11-20T04:53:21;55.80;;;26.70;;
50309;SDS011;36207;51.850;21.698;2022-11-20T04:55:48;60.80;;;29.30;;
50309;SDS011;36207;51.850;21.698;2022-11-20T04:58:15;62.30;;;28.20;;
50309;SDS011;36207;51.850;21.698;2022-11-20T05:00:41;58.50;;;26.60;;
50309;SDS011;36207;51.850;21.698;2022-11-20T05:03:07;56.00;;;26.90;;
50309;SDS011;36207;51.850;21.698;2022-11-20T05:05:34;62.40;;;27.30;;
50309;SDS011;36207;51.850;21.698;2022-11-20T05:08:00;59.30;;;26.90;;
50309;SDS011;36207;51.850;21.698;2022-11-20T05:10:27;54.60;;;26.20;;
50309;SDS011;36207;51.850;21.698;2022-11-20T05:12:53;58.70;;;26.80;;
50309;SDS011;36207;51.850;21.698;2022-11-20T05:15:20;56.80;;;26.20;;
50309;SDS011;36207;51.850;21.698;2022-11-20T05:17:47;57.90;;;26.70;;
50309;SDS011;36207;51.850;21.698;2022-11-20T05:20:17;57.10;;;27.20;;
50309;SDS011;36207;51.850;21.698;2022-11-20T05:22:44;61.20;;;28.60;;
50309;SDS011;36207;51.850;21.698;2022-11-20T05:25:11;61.20;;;27.80;;
50309;SDS011;36207;51.850;21.698;2022-11-20T05:27:37;59.00;;;28.00;;
50309;SDS011;36207;51.850;21.698;2022-11-20T05:30:04;62.90;;;27.40;;
50309;SDS011;36207;51.850;21.698;2022-11-20T05:32:31;60.20;;;28.00;;
50309;SDS011;36207;51.850;21.698;2022-11-20T05:34:57;56.90;;;26.30;;
50309;SDS011;36207;51.850;21.698;2022-11-20T05:37:23;56.80;;;27.50;;
50309;SDS011;36207;51.850;21.698;2022-11-20T05:39:50;58.50;;;27.10;;
50309;SDS011;36207;51.850;21.698;2022-11-20T05:42:16;60.90;;;27.70;;
50309;SDS011;36207;51.850;21.698;2022-11-20T05:45:01;67.40;;;29.30;;
50309;SDS011;36207;51.850;21.698;2022-11-20T05:47:33;72.90;;;32.90;;
50309;SDS011;36207;51.850;21.698;2022-11-20T05:50:00;82.80;;;32.90;;
50309;SDS011;36207;51.850;21.698;2022-11-20T05:52:30;82.40;;;34.00;;
50309;SDS011;36207;51.850;21.698;2022-11-20T05:54:56;78.60;;;33.30;;
50309;SDS011;36207;51.850;21.698;2022-11-20T05:57:22;83.30;;;33.70;;
50309;SDS011;36207;51.850;21.698;2022-11-20T05:59:49;76.70;;;33.00;;
50309;SDS011;36207;51.850;21.698;2022-11-20T06:02:15;71.80;;;32.70;;
50309;SDS011;36207;51.850;21.698;2022-11-20T06:04:42;81.00;;;33.30;;
50309;SDS011;36207;51.850;21.698;2022-11-20T06:07:08;78.00;;;32.00;;
50309;SDS011;36207;51.850;21.698;2022-11-20T06:09:35;71.60;;;32.10;;
50309;SDS011;36207;51.850;21.698;2022-11-20T06:12:01;71.90;;;33.60;;
50309;SDS011;36207;51.850;21.698;2022-11-20T06:14:27;70.90;;;31.90;;
50309;SDS011;36207;51.850;21.698;2022-11-20T06:16:54;66.10;;;30.50;;
50309;SDS011;36207;51.850;21.698;2022-11-20T06:19:20;68.60;;;31.20;;
50309;SDS011;36207;51.850;21.698;2022-11-20T06:21:47;69.50;;;32.20;;
50309;SDS011;36207;51.850;21.698;2022-11-20T06:24:15;82.10;;;35.20;;
50309;SDS011;36207;51.850;21.698;2022-11-20T06:26:42;74.00;;;36.30;;
50309;SDS011;36207;51.850;21.698;2022-11-20T06:29:09;70.80;;;34.40;;
50309;SDS011;36207;51.850;21.698;2022-11-20T06:31:36;69.00;;;33.20;;
50309;SDS011;36207;51.850;21.698;2022-11-20T06:34:03;71.30;;;33.20;;
50309;SDS011;36207;51.850;21.698;2022-11-20T06:36:32;71.90;;;33.40;;
50309;SDS011;36207;51.850;21.698;2022-11-20T06:38:59;78.30;;;35.30;;
50309;SDS011;36207;51.850;21.698;2022-11-20T06:41:26;89.30;;;38.60;;
50309;SDS011;36207;51.850;21.698;2022-11-20T06:43:53;84.40;;;37.30;;
50309;SDS011;36207;51.850;21.698;2022-11-20T06:46:20;81.10;;;37.00;;
50309;SDS011;36207;51.850;21.698;2022-11-20T06:48:47;80.30;;;36.00;;
50309;SDS011;36207;51.850;21.698;2022-11-20T06:51:14;79.00;;;35.30;;
50309;SDS011;36207;51.850;21.698;2022-11-20T06:53:41;71.20;;;35.00;;
50309;SDS011;36207;51.850;21.698;2022-11-20T06:56:07;75.40;;;35.30;;
50309;SDS011;36207;51.850;21.698;2022-11-20T06:58:34;68.00;;;33.00;;
50309;SDS011;36207;51.850;21.698;2022-11-20T07:01:05;69.50;;;33.00;;
50309;SDS011;36207;51.850;21.698;2022-11-20T07:03:34;67.10;;;31.90;;
50309;SDS011;36207;51.850;21.698;2022-11-20T07:06:01;64.20;;;31.30;;
50309;SDS011;36207;51.850;21.698;2022-11-20T07:08:28;71.10;;;32.10;;
50309;SDS011;36207;51.850;21.698;2022-11-20T07:10:59;66.20;;;32.90;;
50309;SDS011;36207;51.850;21.698;2022-11-20T07:13:27;71.40;;;34.70;;
50309;SDS011;36207;51.850;21.698;2022-11-20T07:15:54;69.70;;;35.20;;
50309;SDS011;36207;51.850;21.698;2022-11-20T07:18:20;75.00;;;36.40;;
50309;SDS011;36207;51.850;21.698;2022-11-20T07:20:47;82.20;;;38.80;;
50309;SDS011;36207;51.850;21.698;2022-11-20T07:23:13;73.00;;;35.90;;
50309;SDS011;36207;51.850;21.698;2022-11-20T07:25:39;65.90;;;34.10;;
50309;SDS011;36207;51.850;21.698;2022-11-20T07:28:05;70.30;;;35.10;;
50309;SDS011;36207;51.850;21.698;2022-11-20T07:30:31;71.00;;;36.40;;
50309;SDS011;36207;51.850;21.698;2022-11-20T07:32:58;80.00;;;39.90;;
50309;SDS011;36207;51.850;21.698;2022-11-20T07:35:24;79.40;;;39.50;;
50309;SDS011;36207;51.850;21.698;2022-11-20T07:37:51;83.30;;;40.70;;
50309;SDS011;36207;51.850;21.698;2022-11-20T07:40:17;80.80;;;40.40;;
50309;SDS011;36207;51.850;21.698;2022-11-20T07:42:50;82.60;;;41.80;;
50309;SDS011;36207;51.850;21.698;2022-11-20T07:45:18;70.50;;;35.80;;
50309;SDS011;36207;51.850;21.698;2022-11-20T07:47:46;75.90;;;37.70;;
50309;SDS011;36207;51.850;21.698;2022-11-20T07:50:12;78.50;;;39.00;;
50309;SDS011;36207;51.850;21.698;2022-11-20T07:52:39;71.50;;;37.30;;
50309;SDS011;36207;51.850;21.698;2022-11-20T07:55:06;69.50;;;37.80;;
50309;SDS011;36207;51.850;21.698;2022-11-20T07:57:33;67.70;;;35.50;;
50309;SDS011;36207;51.850;21.698;2022-11-20T07:59:59;59.30;;;32.80;;
50309;SDS011;36207;51.850;21.698;2022-11-20T08:02:26;58.90;;;30.60;;
50309;SDS011;36207;51.850;21.698;2022-11-20T08:04:53;56.80;;;30.40;;
50309;SDS011;36207;51.850;21.698;2022-11-20T08:07:19;60.00;;;31.60;;
50309;SDS011;36207;51.850;21.698;2022-11-20T08:09:45;57.20;;;31.20;;
50309;SDS011;36207;51.850;21.698;2022-11-20T08:12:18;61.50;;;30.60;;
50309;SDS011;36207;51.850;21.698;2022-11-20T08:15:05;52.40;;;28.20;;
50309;SDS011;36207;51.850;21.698;2022-11-20T08:17:32;55.00;;;29.00;;
50309;SDS011;36207;51.850;21.698;2022-11-20T08:19:59;52.50;;;29.30;;
50309;SDS011;36207;51.850;21.698;2022-11-20T08:22:25;50.30;;;27.10;;
50309;SDS011;36207;51.850;21.698;2022-11-20T08:24:51;50.20;;;27.20;;
50309;SDS011;36207;51.850;21.698;2022-11-20T08:27:20;46.40;;;26.20;;
50309;SDS011;36207;51.850;21.698;2022-11-20T08:29:46;48.90;;;26.30;;
50309;SDS011;36207;51.850;21.698;2022-11-20T08:32:12;48.00;;;27.20;;
50309;SDS011;36207;51.850;21.698;2022-11-20T08:34:38;51.30;;;27.70;;
50309;SDS011;36207;51.850;21.698;2022-11-20T08:37:05;51.00;;;27.10;;
50309;SDS011;36207;51.850;21.698;2022-11-20T08:39:31;49.10;;;28.20;;
50309;SDS011;36207;51.850;21.698;2022-11-20T08:41:57;48.60;;;27.50;;
50309;SDS011;36207;51.850;21.698;2022-11-20T08:44:23;49.80;;;28.60;;
50309;SDS011;36207;51.850;21.698;2022-11-20T08:46:50;51.30;;;27.50;;
50309;SDS011;36207;51.850;21.698;2022-11-20T08:49:16;50.90;;;27.30;;
50309;SDS011;36207;51.850;21.698;2022-11-20T08:51:43;47.80;;;28.20;;
50309;SDS011;36207;51.850;21.698;2022-11-20T08:54:10;52.80;;;28.50;;
50309;SDS011;36207;51.850;21.698;2022-11-20T08:56:36;55.60;;;29.20;;
50309;SDS011;36207;51.850;21.698;2022-11-20T08:59:03;53.00;;;29.10;;
50309;SDS011;36207;51.850;21.698;2022-11-20T09:01:29;51.00;;;29.50;;
50309;SDS011;36207;51.850;21.698;2022-11-20T09:03:56;53.90;;;29.30;;
50309;SDS011;36207;51.850;21.698;2022-11-20T09:06:22;50.80;;;27.80;;
50309;SDS011;36207;51.850;21.698;2022-11-20T09:08:52;52.20;;;28.70;;
50309;SDS011;36207;51.850;21.698;2022-11-20T09:11:20;53.20;;;29.80;;
50309;SDS011;36207;51.850;21.698;2022-11-20T09:13:47;54.40;;;28.40;;
50309;SDS011;36207;51.850;21.698;2022-11-20T09:16:14;53.60;;;29.50;;
50309;SDS011;36207;51.850;21.698;2022-11-20T09:18:40;54.90;;;30.70;;
50309;SDS011;36207;51.850;21.698;2022-11-20T09:21:11;51.80;;;28.60;;
50309;SDS011;36207;51.850;21.698;2022-11-20T09:23:39;53.00;;;28.90;;
50309;SDS011;36207;51.850;21.698;2022-11-20T09:26:09;50.00;;;28.00;;
50309;SDS011;36207;51.850;21.698;2022-11-20T09:28:37;52.00;;;28.20;;
50309;SDS011;36207;51.850;21.698;2022-11-20T09:31:15;52.90;;;29.20;;
50309;SDS011;36207;51.850;21.698;2022-11-20T09:33:47;59.60;;;29.20;;
50309;SDS011;36207;51.850;21.698;2022-11-20T09:36:14;52.20;;;29.00;;
50309;SDS011;36207;51.850;21.698;2022-11-20T09:38:47;51.50;;;28.50;;
50309;SDS011;36207;51.850;21.698;2022-11-20T09:42:04;48.80;;;27.30;;
50309;SDS011;36207;51.850;21.698;2022-11-20T09:47:32;51.00;;;28.40;;
50309;SDS011;36207;51.850;21.698;2022-11-20T09:55:31;54.10;;;28.90;;
50309;SDS011;36207;51.850;21.698;2022-11-20T09:57:59;49.90;;;28.70;;
50309;SDS011;36207;51.850;21.698;2022-11-20T10:00:26;48.90;;;28.60;;
50309;SDS011;36207;51.850;21.698;2022-11-20T10:02:55;50.60;;;28.10;;
50309;SDS011;36207;51.850;21.698;2022-11-20T10:05:39;52.20;;;28.80;;
50309;SDS011;36207;51.850;21.698;2022-11-20T10:08:25;46.20;;;27.30;;
50309;SDS011;36207;51.850;21.698;2022-11-20T10:11:04;49.90;;;28.40;;
50309;SDS011;36207;51.850;21.698;2022-11-20T10:13:56;46.40;;;28.20;;
50309;SDS011;36207;51.850;21.698;2022-11-20T10:16:52;48.60;;;28.30;;
50309;SDS011;36207;51.850;21.698;2022-11-20T10:24:57;53.10;;;30.50;;
50309;SDS011;36207;51.850;21.698;2022-11-20T10:30:17;54.40;;;30.40;;
50309;SDS011;36207;51.850;21.698;2022-11-20T10:32:48;47.80;;;28.80;;
50309;SDS011;36207;51.850;21.698;2022-11-20T10:38:00;54.50;;;30.00;;
50309;SDS011;36207;51.850;21.698;2022-11-20T10:40:41;53.30;;;29.40;;
50309;SDS011;36207;51.850;21.698;2022-11-20T10:43:16;54.90;;;31.60;;
50309;SDS011;36207;51.850;21.698;2022-11-20T10:48:25;54.60;;;30.80;;
50309;SDS011;36207;51.850;21.698;2022-11-20T10:56:32;56.70;;;30.10;;
50309;SDS011;36207;51.850;21.698;2022-11-20T11:02:23;59.90;;;33.20;;
50309;SDS011;36207;51.850;21.698;2022-11-20T11:04:58;62.80;;;32.70;;
50309;SDS011;36207;51.850;21.698;2022-11-20T11:07:36;61.10;;;33.80;;
50309;SDS011;36207;51.850;21.698;2022-11-20T11:10:18;57.50;;;32.60;;
50309;SDS011;36207;51.850;21.698;2022-11-20T11:12:48;61.90;;;33.60;;
50309;SDS011;36207;51.850;21.698;2022-11-20T11:17:55;60.80;;;33.50;;
50309;SDS011;36207;51.850;21.698;2022-11-20T11:20:25;61.50;;;32.30;;
50309;SDS011;36207;51.850;21.698;2022-11-20T11:22:56;57.20;;;32.50;;
50309;SDS011;36207;51.850;21.698;2022-11-20T11:27:51;56.40;;;32.10;;
50309;SDS011;36207;51.850;21.698;2022-11-20T11:30:21;58.10;;;31.60;;
50309;SDS011;36207;51.850;21.698;2022-11-20T11:32:48;57.20;;;31.20;;
50309;SDS011;36207;51.850;21.698;2022-11-20T11:35:24;59.60;;;32.60;;
50309;SDS011;36207;51.850;21.698;2022-11-20T11:37:54;53.80;;;30.30;;
50309;SDS011;36207;51.850;21.698;2022-11-20T11:40:31;200.60;;;53.90;;
50309;SDS011;36207;51.850;21.698;2022-11-20T11:43:02;210.40;;;62.10;;
50309;SDS011;36207;51.850;21.698;2022-11-20T11:45:54;55.90;;;31.00;;
50309;SDS011;36207;51.850;21.698;2022-11-20T11:48:22;60.80;;;33.10;;
50309;SDS011;36207;51.850;21.698;2022-11-20T11:50:48;61.10;;;33.10;;
50309;SDS011;36207;51.850;21.698;2022-11-20T11:53:19;64.50;;;32.20;;
50309;SDS011;36207;51.850;21.698;2022-11-20T12:01:17;63.50;;;33.80;;
50309;SDS011;36207;51.850;21.698;2022-11-20T12:06:48;69.80;;;33.70;;
50309;SDS011;36207;51.850;21.698;2022-11-20T12:09:28;59.20;;;32.10;;
50309;SDS011;36207;51.850;21.698;2022-11-20T12:12:10;61.30;;;32.30;;
50309;SDS011;36207;51.850;21.698;2022-11-20T12:14:43;60.80;;;31.60;;
50309;SDS011;36207;51.850;21.698;2022-11-20T12:17:13;53.70;;;28.40;;
50309;SDS011;36207;51.850;21.698;2022-11-20T12:19:40;54.20;;;28.50;;
50309;SDS011;36207;51.850;21.698;2022-11-20T12:22:11;56.60;;;29.70;;
50309;SDS011;36207;51.850;21.698;2022-11-20T12:27:44;59.50;;;31.30;;
50309;SDS011;36207;51.850;21.698;2022-11-20T12:30:19;55.50;;;28.20;;
50309;SDS011;36207;51.850;21.698;2022-11-20T12:50:37;58.80;;;29.90;;
50309;SDS011;36207;51.850;21.698;2022-11-20T12:53:47;55.10;;;29.30;;
50309;SDS011;36207;51.850;21.698;2022-11-20T13:06:54;52.90;;;27.50;;
50309;SDS011;36207;51.850;21.698;2022-11-20T13:09:21;54.60;;;28.30;;
50309;SDS011;36207;51.850;21.698;2022-11-20T13:18:00;59.00;;;30.00;;
50309;SDS011;36207;51.850;21.698;2022-11-20T13:20:29;59.10;;;30.40;;
50309;SDS011;36207;51.850;21.698;2022-11-20T13:22:58;73.80;;;35.50;;
50309;SDS011;36207;51.850;21.698;2022-11-20T13:25:26;94.60;;;43.70;;
50309;SDS011;36207;51.850;21.698;2022-11-20T13:27:58;81.10;;;37.40;;
50309;SDS011;36207;51.850;21.698;2022-11-20T13:30:48;76.10;;;37.20;;
50309;SDS011;36207;51.850;21.698;2022-11-20T13:33:30;78.80;;;36.80;;
50309;SDS011;36207;51.850;21.698;2022-11-20T13:35:59;78.80;;;35.20;;
50309;SDS011;36207;51.850;21.698;2022-11-20T13:38:27;73.90;;;34.90;;
50309;SDS011;36207;51.850;21.698;2022-11-20T13:41:07;76.20;;;36.50;;
50309;SDS011;36207;51.850;21.698;2022-11-20T13:43:53;77.60;;;39.30;;
50309;SDS011;36207;51.850;21.698;2022-11-20T13:46:23;79.10;;;37.50;;
50309;SDS011;36207;51.850;21.698;2022-11-20T13:49:08;68.90;;;32.90;;
50309;SDS011;36207;51.850;21.698;2022-11-20T14:02:23;62.30;;;31.10;;
50309;SDS011;36207;51.850;21.698;2022-11-20T14:04:54;65.70;;;31.70;;
50309;SDS011;36207;51.850;21.698;2022-11-20T14:07:25;62.10;;;32.60;;
50309;SDS011;36207;51.850;21.698;2022-11-20T14:10:00;85.10;;;48.80;;
50309;SDS011;36207;51.850;21.698;2022-11-20T14:12:30;63.90;;;32.00;;
50309;SDS011;36207;51.850;21.698;2022-11-20T14:14:59;64.30;;;31.30;;
50309;SDS011;36207;51.850;21.698;2022-11-20T14:17:30;63.90;;;32.30;;
50309;SDS011;36207;51.850;21.698;2022-11-20T14:20:03;67.40;;;33.10;;
50309;SDS011;36207;51.850;21.698;2022-11-20T14:22:32;65.60;;;31.90;;
50309;SDS011;36207;51.850;21.698;2022-11-20T14:27:43;60.40;;;29.30;;
50309;SDS011;36207;51.850;21.698;2022-11-20T14:30:15;60.80;;;29.90;;
50309;SDS011;36207;51.850;21.698;2022-11-20T14:32:47;65.30;;;34.90;;
50309;SDS011;36207;51.850;21.698;2022-11-20T14:35:24;58.90;;;29.50;;
50309;SDS011;36207;51.850;21.698;2022-11-20T14:37:53;51.90;;;27.00;;
50309;SDS011;36207;51.850;21.698;2022-11-20T14:42:58;47.60;;;24.60;;
50309;SDS011;36207;51.850;21.698;2022-11-20T14:45:25;124.60;;;45.40;;
50309;SDS011;36207;51.850;21.698;2022-11-20T14:47:53;58.10;;;28.40;;
50309;SDS011;36207;51.850;21.698;2022-11-20T14:50:22;52.30;;;27.30;;
50309;SDS011;36207;51.850;21.698;2022-11-20T14:52:52;51.10;;;25.90;;
50309;SDS011;36207;51.850;21.698;2022-11-20T14:58:02;75.50;;;33.70;;
50309;SDS011;36207;51.850;21.698;2022-11-20T15:00:31;91.60;;;38.60;;
50309;SDS011;36207;51.850;21.698;2022-11-20T15:03:00;87.70;;;39.70;;
50309;SDS011;36207;51.850;21.698;2022-11-20T15:05:46;80.20;;;35.90;;
50309;SDS011;36207;51.850;21.698;2022-11-20T15:08:15;70.60;;;34.50;;
50309;SDS011;36207;51.850;21.698;2022-11-20T15:10:45;70.20;;;35.30;;
50309;SDS011;36207;51.850;21.698;2022-11-20T15:15:53;61.50;;;30.00;;
50309;SDS011;36207;51.850;21.698;2022-11-20T15:18:21;73.50;;;33.20;;
50309;SDS011;36207;51.850;21.698;2022-11-20T15:20:52;83.30;;;43.30;;
50309;SDS011;36207;51.850;21.698;2022-11-20T15:23:24;80.50;;;39.80;;
50309;SDS011;36207;51.850;21.698;2022-11-20T15:25:52;68.40;;;34.80;;
50309;SDS011;36207;51.850;21.698;2022-11-20T15:28:23;81.80;;;39.90;;
50309;SDS011;36207;51.850;21.698;2022-11-20T15:33:18;70.60;;;34.00;;
50309;SDS011;36207;51.850;21.698;2022-11-20T15:35:44;70.50;;;32.70;;
50309;SDS011;36207;51.850;21.698;2022-11-20T15:38:11;100.30;;;40.20;;
50309;SDS011;36207;51.850;21.698;2022-11-20T15:40:37;65.50;;;29.90;;
50309;SDS011;36207;51.850;21.698;2022-11-20T15:43:03;81.50;;;35.60;;
50309;SDS011;36207;51.850;21.698;2022-11-20T15:45:38;98.60;;;42.60;;
50309;SDS011;36207;51.850;21.698;2022-11-20T15:48:08;98.20;;;43.10;;
50309;SDS011;36207;51.850;21.698;2022-11-20T15:50:41;94.60;;;41.00;;
50309;SDS011;36207;51.850;21.698;2022-11-20T15:53:18;87.90;;;40.90;;
50309;SDS011;36207;51.850;21.698;2022-11-20T15:55:44;89.60;;;41.60;;
50309;SDS011;36207;51.850;21.698;2022-11-20T15:58:11;75.80;;;34.10;;
50309;SDS011;36207;51.850;21.698;2022-11-20T16:00:38;83.90;;;38.80;;
50309;SDS011;36207;51.850;21.698;2022-11-20T16:03:04;84.20;;;38.30;;
50309;SDS011;36207;51.850;21.698;2022-11-20T16:05:30;67.00;;;32.70;;
50309;SDS011;36207;51.850;21.698;2022-11-20T16:07:56;100.00;;;42.80;;
50309;SDS011;36207;51.850;21.698;2022-11-20T16:10:23;122.30;;;56.00;;
50309;SDS011;36207;51.850;21.698;2022-11-20T16:12:49;82.80;;;39.70;;
50309;SDS011;36207;51.850;21.698;2022-11-20T16:15:34;84.10;;;37.80;;
50309;SDS011;36207;51.850;21.698;2022-11-20T16:18:14;91.50;;;42.20;;
50309;SDS011;36207;51.850;21.698;2022-11-20T16:20:43;72.30;;;34.90;;